createdAt,value
2019-01-19T00:08:52.384Z,-0.16
2019-01-19T00:11:59.826Z,-0.18
2019-01-19T00:14:26.256Z,-0.17
2019-01-19T00:17:31.790Z,-0.21
2019-01-19T00:20:37.837Z,-0.20
2019-01-19T00:23:43.533Z,-0.18
2019-01-19T00:26:50.961Z,-0.17
2019-01-19T00:29:58.582Z,-0.21
2019-01-19T00:33:04.260Z,-0.21
2019-01-19T00:36:11.687Z,-0.28
2019-01-19T00:39:37.112Z,-0.27
2019-01-19T00:42:42.633Z,-0.22
2019-01-19T00:45:48.168Z,-0.24
2019-01-19T00:48:55.634Z,-0.29
2019-01-19T00:52:01.159Z,-0.24
2019-01-19T00:55:08.619Z,-0.26
2019-01-19T01:01:43.120Z,-0.32
2019-01-19T01:04:50.562Z,-0.35
2019-01-19T01:08:18.721Z,-0.32
2019-01-19T01:14:37.945Z,-0.35
2019-01-19T01:17:45.364Z,-0.34
2019-01-19T01:20:52.796Z,-0.26
2019-01-19T01:24:18.206Z,-0.23
2019-01-19T01:27:23.754Z,-0.20
2019-01-19T01:30:50.921Z,-0.34
2019-01-19T01:37:23.520Z,-0.36
2019-01-19T01:40:30.980Z,-0.37
2019-01-19T01:43:38.394Z,-0.35
2019-01-19T01:46:43.932Z,-0.32
2019-01-19T01:49:51.356Z,-0.33
2019-01-19T01:52:56.892Z,-0.36
2019-01-19T01:59:35.936Z,-0.38
2019-01-19T02:09:11.099Z,-0.42
2019-01-19T02:15:30.568Z,-0.87
2019-01-19T02:18:36.112Z,-0.49
2019-01-19T02:21:43.552Z,-0.47
2019-01-19T02:24:51.021Z,-0.50
2019-01-19T02:31:09.936Z,-0.40
2019-01-19T02:34:15.472Z,-0.38
2019-01-19T02:37:22.915Z,-0.41
2019-01-19T02:40:30.343Z,-0.39
2019-01-19T02:46:49.963Z,-0.35
2019-01-19T02:49:57.426Z,-0.62
2019-01-19T02:53:04.858Z,-0.33
2019-01-19T02:56:12.287Z,-0.32
2019-01-19T03:02:33.102Z,-0.41
2019-01-19T03:05:40.531Z,-0.43
2019-01-19T03:08:46.055Z,-0.41
2019-01-19T03:12:11.465Z,-0.44
2019-01-19T03:15:16.998Z,-0.43
2019-01-19T03:18:42.423Z,-0.49
2019-01-19T03:25:16.900Z,-0.35
2019-01-19T03:28:22.439Z,-0.48
2019-01-19T03:31:47.865Z,-0.45
2019-01-19T03:34:55.307Z,-0.43
2019-01-19T03:38:20.733Z,-0.39
2019-01-19T03:41:28.154Z,-0.36
2019-01-19T03:44:35.608Z,-0.41
2019-01-19T03:48:01.033Z,-0.41
2019-01-19T03:51:08.555Z,-0.52
2019-01-19T03:54:15.999Z,-0.51
2019-01-19T03:57:21.522Z,-0.50
2019-01-19T04:00:28.976Z,-0.47
2019-01-19T04:03:34.497Z,-0.44
2019-01-19T04:06:40.032Z,-0.47
2019-01-19T04:13:01.458Z,-0.59
2019-01-19T04:16:08.898Z,-0.63
2019-01-19T04:19:14.415Z,-0.64
2019-01-19T04:22:21.863Z,-0.69
2019-01-19T04:30:39.967Z,-0.81
2019-01-19T04:33:05.722Z,-0.79
2019-01-19T04:35:31.489Z,-0.82
2019-01-19T04:37:57.233Z,-0.78
2019-01-19T04:40:22.994Z,-0.78
2019-01-19T04:42:48.872Z,-0.77
2019-01-19T04:45:14.723Z,-0.72
2019-01-19T04:47:40.497Z,-0.77
2019-01-19T04:50:48.154Z,-0.71
2019-01-19T04:53:14.356Z,-0.72
2019-01-19T04:55:40.378Z,-0.79
2019-01-19T04:58:06.140Z,-0.82
2019-01-19T05:00:31.894Z,-0.93
2019-01-19T05:02:57.663Z,-0.90
2019-01-19T05:05:23.421Z,-0.93
2019-01-19T05:07:49.193Z,-0.99
2019-01-19T05:10:14.944Z,-0.99
2019-01-19T05:12:40.722Z,-0.96
2019-01-19T05:15:26.356Z,-0.99
2019-01-19T05:20:30.246Z,-1.06
2019-01-19T05:22:56.013Z,-1.02
2019-01-19T05:25:21.767Z,-0.97
2019-01-19T05:27:47.540Z,-0.96
2019-01-19T05:30:33.186Z,-1.00
2019-01-19T05:32:58.966Z,-1.01
2019-01-19T05:35:24.710Z,-1.06
2019-01-19T05:37:50.484Z,-1.12
2019-01-19T05:40:16.235Z,-1.16
2019-01-19T05:42:42.007Z,-1.11
2019-01-19T05:45:49.441Z,-1.05
2019-01-19T05:48:15.217Z,-1.02
2019-01-19T05:50:40.972Z,-1.03
2019-01-19T05:53:06.741Z,-1.00
2019-01-19T05:55:32.502Z,-0.99
2019-01-19T05:57:58.278Z,-0.99
2019-01-19T06:03:51.185Z,-1.08
2019-01-19T06:06:17.038Z,-1.13
2019-01-19T06:08:42.807Z,-1.14
2019-01-19T06:11:08.566Z,-1.16
2019-01-19T06:13:34.346Z,-1.19
2019-01-19T06:16:00.108Z,-1.25
2019-01-19T06:20:59.547Z,-1.31
2019-01-19T06:23:25.349Z,-1.32
2019-01-19T06:25:51.099Z,-1.39
2019-01-19T06:28:16.866Z,-1.41
2019-01-19T06:30:42.651Z,-1.43
2019-01-19T06:33:08.415Z,-1.51
2019-01-19T06:35:34.187Z,-1.58
2019-01-19T06:37:59.952Z,-1.66
2019-01-19T06:40:25.724Z,-1.71
2019-01-19T06:42:51.479Z,-1.70
2019-01-19T06:45:58.931Z,-1.68
2019-01-19T06:48:24.690Z,-1.76
2019-01-19T06:50:50.472Z,-1.75
2019-01-19T06:53:16.249Z,-1.74
2019-01-19T06:55:42.019Z,-1.73
2019-01-19T06:58:07.773Z,-1.71
2019-01-19T07:00:33.539Z,-1.67
2019-01-19T07:02:59.295Z,-1.55
2019-01-19T07:05:25.066Z,-1.56
2019-01-19T07:07:50.829Z,-1.56
2019-01-19T07:13:30.241Z,-1.66
2019-01-19T07:15:56.001Z,-1.68
2019-01-19T07:18:21.774Z,-1.68
2019-01-19T07:20:47.542Z,-1.73
2019-01-19T07:23:13.304Z,-1.82
2019-01-19T07:25:39.082Z,-1.88
2019-01-19T07:28:04.838Z,-1.95
2019-01-19T07:30:30.628Z,-1.96
2019-01-19T07:32:56.391Z,-2.10
2019-01-19T07:35:22.173Z,-2.01
2019-01-19T07:37:47.933Z,-2.03
2019-01-19T07:40:55.381Z,-2.08
2019-01-19T07:48:42.069Z,-2.29
2019-01-19T07:51:07.828Z,-2.29
2019-01-19T07:53:33.581Z,-2.29
2019-01-19T07:55:59.359Z,-2.31
2019-01-19T07:58:25.118Z,-2.37
2019-01-19T08:00:51.001Z,-2.37
2019-01-19T08:03:16.868Z,-2.37
2019-01-19T08:05:42.634Z,-2.35
2019-01-19T08:08:08.402Z,-2.34
2019-01-19T08:10:34.273Z,-2.42
2019-01-19T08:13:00.027Z,-2.45
2019-01-19T08:16:07.490Z,-2.46
2019-01-19T08:18:33.300Z,-2.42
2019-01-19T08:20:59.021Z,-2.46
2019-01-19T08:23:26.196Z,-2.42
2019-01-19T08:25:52.453Z,-2.43
2019-01-19T08:28:18.217Z,-2.50
2019-01-19T08:30:44.001Z,-2.53
2019-01-19T08:33:09.772Z,-2.54
2019-01-19T08:38:09.489Z,-2.56
2019-01-19T08:40:35.310Z,-2.52
2019-01-19T08:45:48.335Z,-2.51
2019-01-19T08:51:01.515Z,-2.47
2019-01-19T08:53:27.258Z,-2.49
2019-01-19T08:55:53.054Z,-2.47
2019-01-19T08:58:18.798Z,-2.42
2019-01-19T09:00:44.562Z,-2.38
2019-01-19T09:03:10.791Z,-2.34
2019-01-19T09:05:36.539Z,-2.33
2019-01-19T09:08:02.535Z,-2.32
2019-01-19T09:10:28.297Z,-2.26
2019-01-19T09:12:54.667Z,-2.18
2019-01-19T09:16:03.443Z,-2.18
2019-01-19T09:18:29.202Z,-2.09
2019-01-19T09:20:54.961Z,-1.99
2019-01-19T09:23:40.642Z,-1.95
2019-01-19T09:26:06.416Z,-1.91
2019-01-19T09:28:32.816Z,-1.88
2019-01-19T09:30:59.843Z,-1.83
2019-01-19T09:33:25.613Z,-1.80
2019-01-19T09:35:51.370Z,-1.70
2019-01-19T09:38:17.143Z,-1.65
2019-01-19T09:40:42.900Z,-1.59
2019-01-19T09:43:08.683Z,-1.48
2019-01-19T09:45:34.433Z,-1.39
2019-01-19T09:48:00.204Z,-1.29
2019-01-19T09:50:26.004Z,-1.22
2019-01-19T09:52:51.738Z,-1.15
2019-01-19T09:55:17.486Z,-1.09
2019-01-19T09:57:43.359Z,-1.03
2019-01-19T10:00:50.797Z,-0.93
2019-01-19T10:03:16.563Z,-0.88
2019-01-19T10:05:42.319Z,-0.78
2019-01-19T10:08:08.086Z,-0.74
2019-01-19T10:10:33.850Z,-0.67
2019-01-19T10:12:59.625Z,-0.63
2019-01-19T10:15:25.387Z,-0.56
2019-01-19T10:17:51.161Z,-0.52
2019-01-19T10:20:36.812Z,-0.50
2019-01-19T10:23:02.681Z,-0.48
2019-01-19T10:25:28.446Z,-0.40
2019-01-19T10:27:54.210Z,-0.46
2019-01-19T10:30:39.875Z,-0.37
2019-01-19T10:35:39.101Z,-0.26
2019-01-19T10:40:58.376Z,-0.19
2019-01-19T10:43:24.133Z,-0.15
2019-01-19T10:45:49.887Z,-0.11
2019-01-19T10:48:15.741Z,-0.07
2019-01-19T10:50:41.517Z,-0.03
2019-01-19T10:53:07.277Z,0.02
2019-01-19T10:55:33.049Z,-0.02
2019-01-19T10:57:58.822Z,0.07
2019-01-19T11:01:06.312Z,0.13
2019-01-19T11:03:32.054Z,0.16
2019-01-19T11:05:57.958Z,0.20
2019-01-19T11:08:24.080Z,0.22
2019-01-19T11:10:51.652Z,0.24
2019-01-19T11:13:17.400Z,0.28
2019-01-19T11:15:43.997Z,0.32
2019-01-19T11:18:09.832Z,0.34
2019-01-19T11:20:35.616Z,0.35
2019-01-19T11:23:01.400Z,0.34
2019-01-19T11:26:08.911Z,0.36
2019-01-19T11:28:34.656Z,0.36
2019-01-19T11:31:00.419Z,0.38
2019-01-19T11:33:26.201Z,0.47
2019-01-19T11:35:51.968Z,0.51
2019-01-19T11:38:20.243Z,0.57
2019-01-19T11:40:45.413Z,0.56
2019-01-19T11:43:11.432Z,0.60
2019-01-19T11:45:58.995Z,0.67
2019-01-19T11:48:26.643Z,0.64
2019-01-19T11:50:52.435Z,0.72
2019-01-19T11:53:18.174Z,0.66
2019-01-19T11:55:43.957Z,0.69
2019-01-19T11:58:09.703Z,0.73
2019-01-19T12:01:17.194Z,0.73
2019-01-19T12:03:42.943Z,0.74
2019-01-19T12:06:09.500Z,0.74
2019-01-19T12:08:35.271Z,0.81
2019-01-19T12:11:01.022Z,0.84
2019-01-19T12:13:26.781Z,0.85
2019-01-19T12:15:52.533Z,0.85
2019-01-19T12:18:18.320Z,0.79
2019-01-19T12:20:44.081Z,0.81
2019-01-19T12:23:09.880Z,0.80
2019-01-19T12:28:42.951Z,0.93
2019-01-19T12:31:08.722Z,0.91
2019-01-19T12:33:34.506Z,0.92
2019-01-19T12:36:00.365Z,0.87
2019-01-19T12:38:26.843Z,0.95
2019-01-19T12:40:53.805Z,0.95
2019-01-19T12:43:19.565Z,0.97
2019-01-19T12:46:27.015Z,0.99
2019-01-19T12:48:52.779Z,0.97
2019-01-19T12:51:18.660Z,1.06
2019-01-19T12:53:44.394Z,1.05
2019-01-19T12:56:10.166Z,1.12
2019-01-19T12:58:35.961Z,1.06
2019-01-19T13:01:01.741Z,1.04
2019-01-19T13:03:27.514Z,1.06
2019-01-19T13:06:34.944Z,1.05
2019-01-19T13:09:00.722Z,1.06
2019-01-19T13:12:06.242Z,1.08
2019-01-19T13:15:13.706Z,1.10
2019-01-19T13:18:21.175Z,1.05
2019-01-19T13:21:26.719Z,1.06
2019-01-19T13:24:34.164Z,1.03
2019-01-19T13:27:41.597Z,1.08
2019-01-19T13:30:47.142Z,1.12
2019-01-19T13:33:54.598Z,1.12
2019-01-19T13:37:02.069Z,1.14
2019-01-19T13:40:09.518Z,1.05
2019-01-19T13:43:15.044Z,1.07
2019-01-19T13:46:22.493Z,1.06
2019-01-19T13:49:29.951Z,1.09
2019-01-19T13:52:37.396Z,1.10
2019-01-19T13:56:02.818Z,1.06
2019-01-19T13:59:10.249Z,1.05
2019-01-19T14:02:19.320Z,1.22
2019-01-19T14:05:27.073Z,1.25
2019-01-19T14:08:34.501Z,1.36
2019-01-19T14:11:59.932Z,1.37
2019-01-19T14:15:07.363Z,1.38
2019-01-19T14:18:12.908Z,1.24
2019-01-19T14:21:18.455Z,1.29
2019-01-19T14:24:25.883Z,1.23
2019-01-19T14:27:33.325Z,1.29
2019-01-19T14:30:38.855Z,1.27
2019-01-19T14:33:46.320Z,1.20
2019-01-19T14:36:51.961Z,1.21
2019-01-19T14:39:57.485Z,1.20
2019-01-19T14:43:03.017Z,1.14
2019-01-19T14:46:08.542Z,1.15
2019-01-19T14:49:15.998Z,1.07
2019-01-19T14:52:21.579Z,1.02
2019-01-19T14:55:27.103Z,1.01
2019-01-19T14:58:34.549Z,0.97
2019-01-19T15:11:33.955Z,0.74
2019-01-19T15:14:39.591Z,0.66
2019-01-19T15:17:47.018Z,0.61
2019-01-19T15:20:52.570Z,0.51
2019-01-19T15:24:00.006Z,0.40
2019-01-19T15:30:34.507Z,0.35
2019-01-19T15:33:41.968Z,0.25
2019-01-19T15:36:49.398Z,0.09
2019-01-19T15:39:56.855Z,0.01
2019-01-19T15:43:02.373Z,-0.10
2019-01-19T15:46:09.815Z,-0.16
2019-01-19T15:52:30.409Z,-0.44
2019-01-19T15:55:37.854Z,-0.62
2019-01-19T15:58:45.303Z,-0.71
2019-01-19T16:01:50.825Z,-0.79
2019-01-19T16:04:56.391Z,-0.82
2019-01-19T16:08:03.808Z,-0.96
2019-01-19T16:11:09.347Z,-1.09
2019-01-19T16:14:16.828Z,-1.09
2019-01-19T16:17:24.264Z,-1.16
2019-01-19T16:20:49.684Z,-1.19
2019-01-19T16:23:57.123Z,-1.27
2019-01-19T16:27:22.532Z,-1.36
2019-01-19T16:30:28.115Z,-1.31
2019-01-19T16:33:53.486Z,-1.30
2019-01-19T16:36:59.034Z,-1.31
2019-01-19T16:40:04.557Z,-1.27
2019-01-19T16:43:10.101Z,-1.31
2019-01-19T16:46:17.539Z,-1.45
2019-01-19T16:49:24.961Z,-1.80
2019-01-19T16:52:50.393Z,-1.56
2019-01-19T16:59:09.484Z,-1.64
2019-01-19T17:02:16.924Z,-1.68
2019-01-19T17:05:42.327Z,-1.68
2019-01-19T17:12:01.133Z,-1.67
2019-01-19T17:15:08.569Z,-1.67
2019-01-19T17:18:14.098Z,-1.64
2019-01-19T17:21:39.505Z,-1.63
2019-01-19T17:25:04.919Z,-1.61
2019-01-19T17:28:10.453Z,-1.67
2019-01-19T17:31:15.973Z,-1.75
2019-01-19T17:37:22.635Z,-1.75
2019-01-19T17:40:28.360Z,-1.74
2019-01-19T17:43:35.810Z,-1.77
2019-01-19T17:46:41.331Z,-1.85
2019-01-19T17:49:49.176Z,-1.93
2019-01-19T17:52:56.645Z,-1.97
2019-01-19T17:56:02.359Z,-1.92
2019-01-19T17:59:09.801Z,-1.93
2019-01-19T18:02:15.621Z,-1.96
2019-01-19T18:05:23.069Z,-1.97
2019-01-19T18:08:28.622Z,-2.00
2019-01-19T18:11:37.242Z,-2.01
2019-01-19T18:17:56.681Z,-2.06
2019-01-19T18:21:04.135Z,-2.07
2019-01-19T18:24:10.788Z,-2.10
2019-01-19T18:27:36.154Z,-2.17
2019-01-19T18:30:42.661Z,-2.16
2019-01-19T18:34:08.175Z,-2.18
2019-01-19T18:43:40.620Z,-2.27
2019-01-19T18:46:46.183Z,-2.26
2019-01-19T18:49:51.716Z,-2.19
2019-01-19T18:53:01.954Z,-2.12
2019-01-19T18:56:09.406Z,-2.15
2019-01-19T18:59:14.944Z,-2.20
2019-01-19T19:02:20.454Z,-2.25
2019-01-19T19:05:25.993Z,-2.29
2019-01-19T19:08:33.443Z,-2.20
2019-01-19T19:11:40.903Z,-2.22
2019-01-19T19:14:48.331Z,-2.22
2019-01-19T19:21:07.122Z,-2.43
2019-01-19T19:24:14.559Z,-2.42
2019-01-19T19:27:20.113Z,-2.51
2019-01-19T19:30:45.755Z,-2.56
2019-01-19T19:33:53.255Z,-2.61
2019-01-19T19:36:58.786Z,-2.74
2019-01-19T19:40:09.973Z,-2.72
2019-01-19T19:43:13.655Z,-2.75
2019-01-19T19:46:39.076Z,-2.73
2019-01-19T19:49:46.516Z,-2.77
2019-01-19T19:52:12.286Z,-2.81
2019-01-19T19:54:38.052Z,-2.84
2019-01-19T19:57:03.913Z,-2.84
2019-01-19T19:59:29.697Z,-2.87
2019-01-19T20:01:55.469Z,-2.90
2019-01-19T20:04:21.234Z,-2.94
2019-01-19T20:07:28.674Z,-2.93
2019-01-19T20:09:54.435Z,-2.96
2019-01-19T20:12:20.201Z,-3.01
2019-01-19T20:14:45.974Z,-3.01
2019-01-19T20:17:11.730Z,-2.93
2019-01-19T20:19:37.511Z,-2.91
2019-01-19T20:22:03.364Z,-2.95
2019-01-19T20:24:29.154Z,-2.99
2019-01-19T20:26:54.919Z,-3.02
2019-01-19T20:29:20.715Z,-3.05
2019-01-19T20:31:46.481Z,-3.09
2019-01-19T20:34:12.254Z,-3.15
2019-01-19T20:36:38.022Z,-3.13
2019-01-19T20:39:45.476Z,-3.07
2019-01-19T20:42:11.224Z,-3.15
2019-01-19T20:44:37.003Z,-3.16
2019-01-19T20:47:44.437Z,-3.26
2019-01-19T20:50:51.881Z,-3.10
2019-01-19T20:53:17.633Z,-3.08
2019-01-19T20:55:43.406Z,-3.06
2019-01-19T20:58:09.166Z,-3.06
2019-01-19T21:00:34.950Z,-3.03
2019-01-19T21:03:00.702Z,-3.02
2019-01-19T21:05:46.376Z,-3.07
2019-01-19T21:08:12.128Z,-3.07
2019-01-19T21:10:37.913Z,-3.07
2019-01-19T21:13:03.668Z,-3.07
2019-01-19T21:15:29.435Z,-3.06
2019-01-19T21:17:55.836Z,-3.07
2019-01-19T21:20:22.876Z,-3.09
2019-01-19T21:22:48.634Z,-3.10
2019-01-19T21:25:14.423Z,-3.09
2019-01-19T21:31:07.298Z,-3.12
2019-01-19T21:33:33.042Z,-3.13
2019-01-19T21:35:58.813Z,-3.14
2019-01-19T21:38:24.600Z,-3.18
2019-01-19T21:40:50.380Z,-3.25
2019-01-19T21:43:16.136Z,-3.29
2019-01-19T21:45:41.912Z,-3.33
2019-01-19T21:48:07.673Z,-3.36
2019-01-19T21:50:33.457Z,-3.36
2019-01-19T21:52:59.229Z,-3.41
2019-01-19T21:55:25.006Z,-3.44
2019-01-19T21:57:50.761Z,-3.40
2019-01-19T22:00:38.320Z,-3.41
2019-01-19T22:03:04.085Z,-3.40
2019-01-19T22:05:31.105Z,-3.42
2019-01-19T22:07:57.514Z,-3.41
2019-01-19T22:13:10.614Z,-3.42
2019-01-19T22:15:36.359Z,-3.44
2019-01-19T22:18:02.147Z,-3.46
2019-01-19T22:20:27.905Z,-3.53
2019-01-19T22:22:53.697Z,-3.65
2019-01-19T22:25:19.445Z,-3.68
2019-01-19T22:30:23.312Z,-3.73
2019-01-19T22:37:56.662Z,-3.85
2019-01-19T22:40:22.426Z,-3.87
2019-01-19T22:46:01.526Z,-3.88
2019-01-19T22:48:34.766Z,-3.91
2019-01-19T22:51:00.517Z,-4.04
2019-01-19T22:53:26.280Z,-3.95
2019-01-19T22:55:52.044Z,-3.93
2019-01-19T22:58:17.812Z,-3.89
2019-01-19T23:01:23.336Z,-3.99
2019-01-19T23:03:49.108Z,-4.09
2019-01-19T23:06:14.869Z,-4.13
2019-01-19T23:08:40.649Z,-4.17
2019-01-19T23:11:06.400Z,-4.14
2019-01-19T23:13:32.180Z,-4.20
2019-01-19T23:15:57.937Z,-4.26
2019-01-19T23:18:23.713Z,-4.21
2019-01-19T23:20:49.470Z,-4.22
2019-01-19T23:23:15.250Z,-4.21
2019-01-19T23:25:41.005Z,-4.19
2019-01-19T23:28:06.796Z,-4.19
2019-01-19T23:30:32.655Z,-4.23
2019-01-19T23:32:58.481Z,-4.25
2019-01-19T23:35:24.270Z,-4.28
2019-01-19T23:38:03.148Z,-4.30
2019-01-19T23:40:17.696Z,-4.29
2019-01-19T23:42:47.421Z,-4.31
2019-01-19T23:45:11.388Z,-4.31
2019-01-19T23:47:37.143Z,-4.37
2019-01-19T23:53:16.723Z,-4.38
2019-01-19T23:55:42.470Z,-4.35
2019-01-19T23:58:08.245Z,-4.32
